18°C
Woerden, The Nederlands
Taal:  Nederlands
Updated18/05/2022 22:45 
 

Nearby METAR Reports

EHAM - Amsterdam/Schiph, Netherlands
Distance from station: N 27km
Updated: 18/05/2022 22:25
Helder
Helder
 Wind van O
Wind: O 13 km/h
Temperatuur: 16°C
Dauwpunt: 14°C
Vochtigheid: 88%
Barometer: 1019 hPa
Overzicht: Helder
Visibility: greater than 10 km
2022/05/18 20:25 EHAM 182025Z 08007KT CAVOK 16/14 Q1019 NOSIG
EHRD - Rotterdam Airpor, Netherlands
Distance from station: WZW 30km
Updated: 18/05/2022 22:25
Gedeeltelijk bewolkt
Gedeeltelijk bewolkt
 Wind van O
Wind: O 9 km/h
Temperatuur: 17°C
Dauwpunt: 12°C
Vochtigheid: 73%
Barometer: 1019 hPa
Clouds: Gedeeltelijk bewolkt
Visibility: 10 km
2022/05/18 20:25 EHRD 182025Z AUTO 09005KT 9999 NSC 17/12 Q1019 NOSIG
 
EHGR - Gilze-Rijen Rnla, Netherlands
Distance from station: Z 57km
Updated: 18/05/2022 22:25

 Wind van varies
Wind: varies 4 km/h
Temperatuur: 20°C
Dauwpunt: 14°C
Vochtigheid: 69%
Barometer: 1019 hPa
Visibility: 10 km
2022/05/18 20:25 EHGR 182025Z AUTO VRB02KT 9999 ////// 20/14 Q1019 BLU
EHDL - Deelen Rnlafb, Netherlands
Distance from station: O 71km
Updated: 18/05/2022 22:25
Zwaar bewolkt
Zwaar bewolkt
 Wind van NNW
Wind: NNW 9 km/h
Temperatuur: 19°C
Dauwpunt: 15°C
Vochtigheid: 78%
Barometer: 1020 hPa
Clouds: Zwaar bewolkt
Visibility: 10 km
Cloud details: Zwaar bewolkt 2073 m
2022/05/18 20:25 EHDL 182025Z AUTO 34005KT 310V020 9999 OVC068 19/15 Q1020 BLU
 
EHVK - Volkel Rnlafb, Netherlands
Distance from station: ZO 77km
Updated: 18/05/2022 22:25
Meestal bewolkt
Meestal bewolkt
 Wind van N
Wind: N 9 km/h
Temperatuur: 22°C
Dauwpunt: 16°C
Vochtigheid: 69%
Barometer: 1019 hPa
Clouds: Meestal bewolkt
Visibility: 10 km
Cloud details: Meestal bewolkt 2195 m
Meestal bewolkt 2408 m
Meestal bewolkt 2621 m
2022/05/18 20:25 EHVK 182025Z AUTO 35005KT 320V020 9999 BKN072 BKN079 BKN086 22/16 Q1019 BLU
EHWO - Woensdrecht Rnla, Netherlands
Distance from station: ZZW 78km
Updated: 18/05/2022 22:25
Zwaar bewolkt
Zwaar bewolkt
 Wind van ONO
Wind: ONO 9 km/h
Temperatuur: 17°C
Dauwpunt: 13°C
Vochtigheid: 77%
Barometer: 1019 hPa
Clouds: Zwaar bewolkt
Visibility: 10 km
Cloud details: Zwaar bewolkt 8230 m
2022/05/18 20:25 EHWO 182025Z AUTO 07005KT 9999 OVC270 17/13 Q1019 BLU
 
EHEH - Eindhoven Rnlafb, Netherlands
Distance from station: ZZO 81km
Updated: 18/05/2022 22:25
Meestal bewolkt
Meestal bewolkt
 Wind van N
Wind: N 7 km/h
Temperatuur: 21°C
Dauwpunt: 16°C
Vochtigheid: 73%
Barometer: 1019 hPa
Clouds: Meestal bewolkt
Visibility: 10 km
Cloud details: Meestal bewolkt 2195 m
Meestal bewolkt 2469 m
Meestal bewolkt 2926 m
2022/05/18 20:25 EHEH 182025Z AUTO 36004KT 9999 BKN072 BKN081 BKN096 21/16 Q1019 BLU NOSIG
EHSC - Goeree Le Sea, Netherlands
Distance from station: W 81km
Updated: 18/05/2022 22:25

 Wind van O
Wind: O 24 km/h
Temperatuur: 17°C
Dauwpunt: 11°C
Vochtigheid: 68%
Barometer: 1018 hPa
Visibility: 10 km
2022/05/18 20:25 EHSC 182025Z AUTO 09013KT 9999 ///////// 17/11 Q1018 W12/H4